createdAt,value
2018-03-04T00:00:13.869Z,121.40
2018-03-04T00:02:41.286Z,115.97
2018-03-04T00:05:08.707Z,114.03
2018-03-04T00:07:36.125Z,116.47
2018-03-04T00:10:03.553Z,113.57
2018-03-04T00:12:30.977Z,111.32
2018-03-04T00:14:58.403Z,113.70
2018-03-04T00:17:25.825Z,108.30
2018-03-04T00:19:53.245Z,100.50
2018-03-04T00:22:20.751Z,105.97
2018-03-04T00:24:48.176Z,117.10
2018-03-04T00:27:15.590Z,113.93
2018-03-04T00:29:43.043Z,110.25
2018-03-04T00:32:10.471Z,111.68
2018-03-04T00:34:37.886Z,114.22
2018-03-04T00:37:05.325Z,118.35
2018-03-04T00:39:32.965Z,109.20
2018-03-04T00:42:00.412Z,117.05
2018-03-04T00:44:27.834Z,109.93
2018-03-04T00:46:55.257Z,116.43
2018-03-04T00:49:22.677Z,114.18
2018-03-04T00:51:50.093Z,113.75
2018-03-04T00:54:17.516Z,117.47
2018-03-04T00:56:44.929Z,120.93
2018-03-04T00:59:12.358Z,120.30
2018-03-04T01:01:39.774Z,114.32
2018-03-04T01:04:07.206Z,120.53
2018-03-04T01:06:34.625Z,114.97
2018-03-04T01:09:02.054Z,127.53
2018-03-04T01:11:29.475Z,126.18
2018-03-04T01:13:56.894Z,117.07
2018-03-04T01:16:24.314Z,118.35
2018-03-04T01:18:51.742Z,119.90
2018-03-04T01:21:19.209Z,130.87
2018-03-04T01:23:46.617Z,124.53
2018-03-04T01:26:14.047Z,121.40
2018-03-04T01:28:41.469Z,114.15
2018-03-04T01:31:08.893Z,122.57
2018-03-04T01:33:36.318Z,125.82
2018-03-04T01:36:03.745Z,118.37
2018-03-04T01:38:31.166Z,118.95
2018-03-04T01:40:58.590Z,126.47
2018-03-04T01:43:26.013Z,117.13
2018-03-04T01:45:53.438Z,118.57
2018-03-04T01:48:20.930Z,115.43
2018-03-04T01:50:48.354Z,119.75
2018-03-04T01:53:15.769Z,122.10
2018-03-04T01:55:43.194Z,127.32
2018-03-04T01:58:10.618Z,126.65
2018-03-04T02:00:38.434Z,125.45
2018-03-04T02:03:05.854Z,121.53
2018-03-04T02:05:33.277Z,125.68
2018-03-04T02:08:00.697Z,126.35
2018-03-04T02:10:28.113Z,122.75
2018-03-04T02:12:55.541Z,112.62
2018-03-04T02:15:22.958Z,115.62
2018-03-04T02:17:50.386Z,119.20
2018-03-04T02:20:17.819Z,117.00
2018-03-04T02:22:45.243Z,119.10
2018-03-04T02:25:12.657Z,129.55
2018-03-04T02:27:40.090Z,112.43
2018-03-04T02:30:07.511Z,123.57
2018-03-04T02:32:34.931Z,119.50
2018-03-04T02:35:02.355Z,118.47
2018-03-04T02:37:29.786Z,125.50
2018-03-04T02:39:57.220Z,112.20
2018-03-04T02:42:24.635Z,120.30
2018-03-04T02:44:52.062Z,113.22
2018-03-04T02:47:19.479Z,112.25
2018-03-04T02:49:46.910Z,117.87
2018-03-04T02:52:14.337Z,118.55
2018-03-04T02:54:41.779Z,112.70
2018-03-04T02:57:09.315Z,113.25
2018-03-04T02:59:36.730Z,112.20
2018-03-04T03:02:04.152Z,114.68
2018-03-04T03:04:31.575Z,114.90
2018-03-04T03:06:59.102Z,120.57
2018-03-04T03:09:26.531Z,124.05
2018-03-04T03:11:54.066Z,110.93
2018-03-04T03:14:21.489Z,121.80
2018-03-04T03:16:48.909Z,113.90
2018-03-04T03:19:16.334Z,119.22
2018-03-04T03:21:44.096Z,112.78
2018-03-04T03:24:11.509Z,110.70
2018-03-04T03:26:38.934Z,118.22
2018-03-04T03:29:06.360Z,121.00
2018-03-04T03:31:33.790Z,116.70
2018-03-04T03:34:01.215Z,112.90
2018-03-04T03:36:28.637Z,118.07
2018-03-04T03:38:56.061Z,117.10
2018-03-04T03:41:23.483Z,119.55
2018-03-04T03:43:50.907Z,116.93
2018-03-04T03:46:18.330Z,114.37
2018-03-04T03:48:45.762Z,118.68
2018-03-04T03:51:13.182Z,116.78
2018-03-04T03:53:40.593Z,119.80
2018-03-04T03:56:08.018Z,114.88
2018-03-04T03:58:35.438Z,119.05
2018-03-04T04:01:02.878Z,116.78
2018-03-04T04:03:30.302Z,116.37
2018-03-04T04:05:57.738Z,114.57
2018-03-04T04:08:25.157Z,107.43
2018-03-04T04:10:52.589Z,112.60
2018-03-04T04:13:20.010Z,116.53
2018-03-04T04:15:47.445Z,114.25
2018-03-04T04:18:14.866Z,107.20
2018-03-04T04:20:42.287Z,115.75
2018-03-04T04:23:09.714Z,112.05
2018-03-04T04:25:37.166Z,116.18
2018-03-04T04:28:04.589Z,119.93
2018-03-04T04:30:32.014Z,113.65
2018-03-04T04:32:59.429Z,117.82
2018-03-04T04:35:26.858Z,103.45
2018-03-04T04:37:54.285Z,110.30
2018-03-04T04:40:21.706Z,122.32
2018-03-04T04:42:49.125Z,110.65
2018-03-04T04:45:16.553Z,108.50
2018-03-04T04:47:43.969Z,111.22
2018-03-04T04:50:11.399Z,118.22
2018-03-04T04:52:38.829Z,105.85
2018-03-04T04:55:06.257Z,117.20
2018-03-04T04:57:33.674Z,106.22
2018-03-04T05:00:01.354Z,113.22
2018-03-04T05:02:28.778Z,107.80
2018-03-04T05:04:56.201Z,111.32
2018-03-04T05:07:23.626Z,122.75
2018-03-04T05:09:51.050Z,119.62
2018-03-04T05:12:18.481Z,113.47
2018-03-04T05:14:45.919Z,108.70
2018-03-04T05:17:13.344Z,115.53
2018-03-04T05:19:40.762Z,118.95
2018-03-04T05:22:08.185Z,115.57
2018-03-04T05:24:35.619Z,115.15
2018-03-04T05:27:03.037Z,110.82
2018-03-04T05:29:30.466Z,114.32
2018-03-04T05:31:57.887Z,103.95
2018-03-04T05:34:25.341Z,113.32
2018-03-04T05:36:52.726Z,111.43
2018-03-04T05:39:20.154Z,114.50
2018-03-04T05:41:47.582Z,112.82
2018-03-04T05:44:15.014Z,119.68
2018-03-04T05:46:42.446Z,115.93
2018-03-04T05:49:09.874Z,110.07
2018-03-04T05:51:38.147Z,115.75
2018-03-04T05:54:05.570Z,112.35
2018-03-04T05:56:33.002Z,106.18
2018-03-04T05:59:00.422Z,112.60
2018-03-04T06:01:27.851Z,111.85
2018-03-04T06:03:55.283Z,116.22
2018-03-04T06:06:22.702Z,115.57
2018-03-04T06:08:50.122Z,116.35
2018-03-04T06:11:17.542Z,104.70
2018-03-04T06:13:45.062Z,112.90
2018-03-04T06:16:12.497Z,115.37
2018-03-04T06:18:39.922Z,112.80
2018-03-04T06:21:07.375Z,112.45
2018-03-04T06:23:34.790Z,109.10
2018-03-04T06:26:02.226Z,108.47
2018-03-04T06:28:29.654Z,104.93
2018-03-04T06:30:57.082Z,106.37
2018-03-04T06:33:24.551Z,99.80
2018-03-04T06:35:51.973Z,117.20
2018-03-04T06:38:19.401Z,114.15
2018-03-04T06:40:46.831Z,106.80
2018-03-04T06:43:14.267Z,105.32
2018-03-04T06:45:41.678Z,105.85
2018-03-04T06:48:09.102Z,109.65
2018-03-04T06:50:36.528Z,105.75
2018-03-04T06:53:03.946Z,110.18
2018-03-04T06:55:31.374Z,105.20
2018-03-04T06:57:58.829Z,97.97
2018-03-04T07:00:26.205Z,96.68
2018-03-04T07:02:53.629Z,104.68
2018-03-04T07:05:21.054Z,99.87
2018-03-04T07:07:48.473Z,94.90
2018-03-04T07:10:15.910Z,108.15
2018-03-04T07:12:43.316Z,97.40
2018-03-04T07:15:10.745Z,91.78
2018-03-04T07:17:38.172Z,90.50
2018-03-04T07:20:05.587Z,90.85
2018-03-04T07:22:33.025Z,105.12
2018-03-04T07:25:00.443Z,96.15
2018-03-04T07:27:27.870Z,89.87
2018-03-04T07:29:55.417Z,101.65
2018-03-04T07:32:22.858Z,95.25
2018-03-04T07:34:50.301Z,91.60
2018-03-04T07:37:17.745Z,93.07
2018-03-04T07:39:45.158Z,107.43
2018-03-04T07:42:12.578Z,103.00
2018-03-04T07:44:40.007Z,107.10
2018-03-04T07:47:07.425Z,98.65
2018-03-04T07:49:34.855Z,101.85
2018-03-04T07:52:02.267Z,98.07
2018-03-04T07:54:29.686Z,96.55
2018-03-04T07:56:57.106Z,90.62
2018-03-04T07:59:24.521Z,99.47
2018-03-04T08:01:51.937Z,92.75
2018-03-04T08:04:19.402Z,104.63
2018-03-04T08:06:46.834Z,102.53
2018-03-04T08:09:14.254Z,100.57
2018-03-04T08:11:41.671Z,97.67
2018-03-04T08:14:09.106Z,97.95
2018-03-04T08:16:36.517Z,107.37
2018-03-04T08:19:03.929Z,91.28
2018-03-04T08:21:31.345Z,89.90
2018-03-04T08:23:58.754Z,89.70
2018-03-04T08:26:38.035Z,89.15
2018-03-04T08:29:05.442Z,92.77
2018-03-04T08:31:32.870Z,88.33
2018-03-04T08:34:00.290Z,85.53
2018-03-04T08:36:27.704Z,92.47
2018-03-04T08:38:55.113Z,91.57
2018-03-04T08:41:22.519Z,85.33
2018-03-04T08:43:49.927Z,81.93
2018-03-04T08:46:17.341Z,86.27
2018-03-04T08:48:44.774Z,81.20
2018-03-04T08:51:12.173Z,93.17
2018-03-04T08:53:39.582Z,91.37
2018-03-04T08:56:07.001Z,87.70
2018-03-04T08:58:34.407Z,80.10
2018-03-04T09:01:01.826Z,83.47
2018-03-04T09:03:29.282Z,79.30
2018-03-04T09:05:56.648Z,84.50
2018-03-04T09:08:24.070Z,81.10
2018-03-04T09:10:51.494Z,83.60
2018-03-04T09:13:18.936Z,80.50
2018-03-04T09:15:46.350Z,85.17
2018-03-04T09:18:13.770Z,76.57
2018-03-04T09:20:41.180Z,82.53
2018-03-04T09:23:08.598Z,80.53
2018-03-04T09:25:36.036Z,82.17
2018-03-04T09:28:03.430Z,85.70
2018-03-04T09:30:30.889Z,73.93
2018-03-04T09:32:58.800Z,73.63
2018-03-04T09:35:27.609Z,75.67
2018-03-04T09:37:55.026Z,81.67
2018-03-04T09:40:22.470Z,73.70
2018-03-04T09:42:49.886Z,84.00
2018-03-04T09:45:17.306Z,73.17
2018-03-04T09:47:45.599Z,72.27
2018-03-04T09:50:13.026Z,70.97
2018-03-04T09:52:40.458Z,80.27
2018-03-04T09:55:09.312Z,74.17
2018-03-04T09:57:36.809Z,77.93
2018-03-04T10:00:04.214Z,77.00
2018-03-04T10:02:31.640Z,70.17
2018-03-04T10:04:59.058Z,69.50
2018-03-04T10:07:26.479Z,81.43
2018-03-04T10:09:53.886Z,73.57
2018-03-04T10:12:21.291Z,71.00
2018-03-04T10:14:48.714Z,76.47
2018-03-04T10:17:16.145Z,70.03
2018-03-04T10:19:43.564Z,75.07
2018-03-04T10:22:10.991Z,67.00
2018-03-04T10:24:38.466Z,66.60
2018-03-04T10:27:05.862Z,70.00
2018-03-04T10:29:33.371Z,64.57
2018-03-04T10:32:00.785Z,62.70
2018-03-04T10:34:28.218Z,62.30
2018-03-04T10:36:55.739Z,65.80
2018-03-04T10:39:23.153Z,62.87
2018-03-04T10:41:50.565Z,59.73
2018-03-04T10:44:18.040Z,62.77
2018-03-04T10:46:45.457Z,56.40
2018-03-04T10:49:12.867Z,58.50
2018-03-04T10:51:40.278Z,58.07
2018-03-04T10:54:07.810Z,58.70
2018-03-04T10:56:35.258Z,58.43
2018-03-04T10:59:02.678Z,57.90
2018-03-04T11:01:35.686Z,57.87
2018-03-04T11:04:03.103Z,61.27
2018-03-04T11:06:30.542Z,55.87
2018-03-04T11:08:58.842Z,58.40
2018-03-04T11:11:26.302Z,59.30
2018-03-04T11:13:53.721Z,52.73
2018-03-04T11:16:21.130Z,53.00
2018-03-04T11:18:49.544Z,54.33
2018-03-04T11:21:17.062Z,52.00
2018-03-04T11:23:44.486Z,47.67
2018-03-04T11:26:11.906Z,51.33
2018-03-04T11:28:39.341Z,47.53
2018-03-04T11:31:06.826Z,48.83
2018-03-04T11:33:34.233Z,49.00
2018-03-04T11:36:01.646Z,50.70
2018-03-04T11:38:29.058Z,51.13
2018-03-04T11:40:56.497Z,51.23
2018-03-04T11:43:23.902Z,46.90
2018-03-04T11:45:51.319Z,52.43
2018-03-04T11:48:18.736Z,46.90
2018-03-04T11:50:46.149Z,46.83
2018-03-04T11:53:13.585Z,45.80
2018-03-04T11:55:41.197Z,55.37
2018-03-04T11:58:08.616Z,51.07
2018-03-04T12:00:36.166Z,50.20
2018-03-04T12:03:03.584Z,44.20
2018-03-04T12:05:30.998Z,42.57
2018-03-04T12:07:58.409Z,42.50
2018-03-04T12:10:25.830Z,38.93
2018-03-04T12:12:53.243Z,41.67
2018-03-04T12:15:20.674Z,38.97
2018-03-04T12:17:48.142Z,42.33
2018-03-04T12:20:15.562Z,42.27
2018-03-04T12:22:42.983Z,40.60
2018-03-04T12:25:10.401Z,44.70
2018-03-04T12:27:37.828Z,43.40
2018-03-04T12:30:05.225Z,37.70
2018-03-04T12:32:32.654Z,40.63
2018-03-04T12:35:00.063Z,38.03
2018-03-04T12:37:27.483Z,32.77
2018-03-04T12:39:54.889Z,32.93
2018-03-04T12:42:22.313Z,32.30
2018-03-04T12:44:49.725Z,30.77
2018-03-04T12:47:17.142Z,36.33
2018-03-04T12:49:44.562Z,33.90
2018-03-04T12:52:11.965Z,35.10
2018-03-04T12:54:39.389Z,34.80
2018-03-04T12:57:06.803Z,33.37
2018-03-04T12:59:34.217Z,38.50
2018-03-04T13:02:01.630Z,32.30
2018-03-04T13:04:29.049Z,31.03
2018-03-04T13:06:56.457Z,28.53
2018-03-04T13:09:23.876Z,30.90
2018-03-04T13:11:51.294Z,27.80
2018-03-04T13:14:18.710Z,31.20
2018-03-04T13:16:46.131Z,28.73
2018-03-04T13:19:13.554Z,30.20
2018-03-04T13:21:40.993Z,30.60
2018-03-04T13:24:09.182Z,29.33
2018-03-04T13:26:36.605Z,30.20
2018-03-04T13:29:04.022Z,30.63
2018-03-04T13:31:31.426Z,26.33
2018-03-04T13:33:58.838Z,26.90
2018-03-04T13:36:26.469Z,26.87
2018-03-04T13:38:53.886Z,24.63
2018-03-04T13:41:22.225Z,25.73
2018-03-04T13:43:49.898Z,25.87
2018-03-04T13:46:17.305Z,22.63
2018-03-04T13:48:44.981Z,22.73
2018-03-04T13:51:12.394Z,26.83
2018-03-04T13:53:39.818Z,22.93
2018-03-04T13:56:07.346Z,24.07
2018-03-04T13:58:34.754Z,23.20
2018-03-04T14:01:02.193Z,25.00
2018-03-04T14:03:29.601Z,23.60
2018-03-04T14:05:57.017Z,23.73
2018-03-04T14:08:24.513Z,25.40
2018-03-04T14:10:51.958Z,26.23
2018-03-04T14:13:19.415Z,25.53
2018-03-04T14:15:46.829Z,23.57
2018-03-04T14:18:14.246Z,24.63
2018-03-04T14:20:41.660Z,23.87
2018-03-04T14:23:09.081Z,24.33
2018-03-04T14:25:36.531Z,22.47
2018-03-04T14:28:03.957Z,22.93
2018-03-04T14:30:31.371Z,24.23
2018-03-04T14:32:59.313Z,23.80
2018-03-04T14:35:26.729Z,22.50
2018-03-04T14:37:54.161Z,23.40
2018-03-04T14:40:21.585Z,23.77
2018-03-04T14:42:49.077Z,25.90
2018-03-04T14:45:16.527Z,25.30
2018-03-04T14:47:43.938Z,26.50
2018-03-04T14:50:11.366Z,24.10
2018-03-04T14:52:40.294Z,24.70
2018-03-04T14:55:07.722Z,24.73
2018-03-04T14:57:35.137Z,25.87
2018-03-04T15:00:02.553Z,24.63
2018-03-04T15:02:29.971Z,26.80
2018-03-04T15:04:57.381Z,21.33
2018-03-04T15:07:24.793Z,23.37
2018-03-04T15:09:52.206Z,24.00
2018-03-04T15:12:19.623Z,22.83
2018-03-04T15:14:47.042Z,22.53
2018-03-04T15:17:14.453Z,22.03
2018-03-04T15:19:41.869Z,21.03
2018-03-04T15:22:09.290Z,23.30
2018-03-04T15:24:36.698Z,23.30
2018-03-04T15:27:04.110Z,22.13
2018-03-04T15:29:31.526Z,21.40
2018-03-04T15:31:58.937Z,21.17
2018-03-04T15:34:26.367Z,24.00
2018-03-04T15:36:53.765Z,21.77
2018-03-04T15:39:21.182Z,22.10
2018-03-04T15:41:48.594Z,23.23
2018-03-04T15:44:16.090Z,21.93
2018-03-04T15:46:43.519Z,22.77
2018-03-04T15:49:10.954Z,29.00
2018-03-04T15:51:38.452Z,21.80
2018-03-04T15:54:06.782Z,22.70
2018-03-04T15:56:34.200Z,24.33
2018-03-04T15:59:01.673Z,21.60
2018-03-04T16:01:29.099Z,24.23
2018-03-04T16:03:56.509Z,27.77
2018-03-04T16:06:23.930Z,25.50
2018-03-04T16:08:51.349Z,23.90
2018-03-04T16:11:19.171Z,24.13
2018-03-04T16:13:46.629Z,24.97
2018-03-04T16:16:14.055Z,23.80
2018-03-04T16:18:41.479Z,29.13
2018-03-04T16:21:09.002Z,25.10
2018-03-04T16:23:36.458Z,27.00
2018-03-04T16:26:03.877Z,25.23
2018-03-04T16:28:31.285Z,27.70
2018-03-04T16:30:58.741Z,23.47
2018-03-04T16:33:26.207Z,23.50
2018-03-04T16:35:53.626Z,28.00
2018-03-04T16:38:21.079Z,25.97
2018-03-04T16:40:48.547Z,25.00
2018-03-04T16:43:16.069Z,27.27
2018-03-04T16:45:43.497Z,28.53
2018-03-04T16:48:10.913Z,25.57
2018-03-04T16:50:38.342Z,24.30
2018-03-04T16:53:05.761Z,25.77
2018-03-04T16:55:33.173Z,26.57
2018-03-04T16:58:00.597Z,26.07
2018-03-04T17:00:28.022Z,25.17
2018-03-04T17:02:55.749Z,26.33
2018-03-04T17:05:23.171Z,26.27
2018-03-04T17:07:50.594Z,28.77
2018-03-04T17:10:18.013Z,27.07
2018-03-04T17:12:45.441Z,25.53
2018-03-04T17:15:12.867Z,36.40
2018-03-04T17:17:40.279Z,32.60
2018-03-04T17:20:07.701Z,29.27
2018-03-04T17:22:35.101Z,32.40
2018-03-04T17:25:02.523Z,31.77
2018-03-04T17:27:30.028Z,34.33
2018-03-04T17:29:57.439Z,37.47
2018-03-04T17:32:24.855Z,37.37
2018-03-04T17:34:52.270Z,34.17
2018-03-04T17:37:19.751Z,37.00
2018-03-04T17:39:47.094Z,41.80
2018-03-04T17:42:14.517Z,37.00
2018-03-04T17:44:41.927Z,31.80
2018-03-04T17:47:09.362Z,37.80
2018-03-04T17:49:36.771Z,37.30
2018-03-04T17:52:04.214Z,36.17
2018-03-04T17:54:31.616Z,28.23
2018-03-04T17:56:59.026Z,32.83
2018-03-04T17:59:26.456Z,33.60
2018-03-04T18:01:53.861Z,33.43
2018-03-04T18:04:21.278Z,31.90
2018-03-04T18:06:48.690Z,32.87
2018-03-04T18:09:16.146Z,30.90
2018-03-04T18:11:43.550Z,35.13
2018-03-04T18:14:10.958Z,35.77
2018-03-04T18:16:38.383Z,36.60
2018-03-04T18:19:05.798Z,39.93
2018-03-04T18:21:33.245Z,38.43
2018-03-04T18:24:00.658Z,45.03
2018-03-04T18:26:28.066Z,42.67
2018-03-04T18:28:55.470Z,42.33
2018-03-04T18:31:22.886Z,46.73
2018-03-04T18:33:50.303Z,46.43
2018-03-04T18:36:17.706Z,48.33
2018-03-04T18:38:45.205Z,50.13
2018-03-04T18:41:12.635Z,53.63
2018-03-04T18:43:40.047Z,53.10
2018-03-04T18:46:07.449Z,55.10
2018-03-04T18:48:34.866Z,56.50
2018-03-04T18:51:02.301Z,57.60
2018-03-04T18:53:29.715Z,68.00
2018-03-04T18:55:57.145Z,65.00
2018-03-04T18:58:24.570Z,66.30
2018-03-04T19:00:51.978Z,61.47
2018-03-04T19:03:19.390Z,68.73
2018-03-04T19:05:47.686Z,61.70
2018-03-04T19:08:15.098Z,66.20
2018-03-04T19:10:42.509Z,62.70
2018-03-04T19:13:09.974Z,62.67
2018-03-04T19:15:37.444Z,65.93
2018-03-04T19:18:04.932Z,67.83
2018-03-04T19:20:32.371Z,69.93
2018-03-04T19:23:00.319Z,68.40
2018-03-04T19:25:27.726Z,65.47
2018-03-04T19:27:55.134Z,65.30
2018-03-04T19:30:22.577Z,63.90
2018-03-04T19:32:49.981Z,69.67
2018-03-04T19:35:17.393Z,62.13
2018-03-04T19:37:44.825Z,67.53
2018-03-04T19:40:12.254Z,59.17
2018-03-04T19:42:39.673Z,67.37
2018-03-04T19:45:07.079Z,63.70
2018-03-04T19:47:34.495Z,69.30
2018-03-04T19:50:01.996Z,66.80
2018-03-04T19:52:29.420Z,64.23
2018-03-04T19:54:56.830Z,59.03
2018-03-04T19:57:24.273Z,62.93
2018-03-04T19:59:51.678Z,60.73
2018-03-04T20:02:19.106Z,64.17
2018-03-04T20:04:46.522Z,62.80
2018-03-04T20:07:13.935Z,57.73
2018-03-04T20:09:41.351Z,64.70
2018-03-04T20:12:08.758Z,64.70
2018-03-04T20:14:36.180Z,70.03
2018-03-04T20:17:03.592Z,66.90
2018-03-04T20:19:31.000Z,65.53
2018-03-04T20:21:58.406Z,65.73
2018-03-04T20:24:25.864Z,67.40
2018-03-04T20:26:53.339Z,64.97
2018-03-04T20:29:20.774Z,60.20
2018-03-04T20:31:48.280Z,63.43
2018-03-04T20:34:15.723Z,67.73
2018-03-04T20:36:43.125Z,66.77
2018-03-04T20:39:10.542Z,73.80
2018-03-04T20:41:37.952Z,66.07
2018-03-04T20:44:06.234Z,63.73
2018-03-04T20:46:33.648Z,69.67
2018-03-04T20:49:01.058Z,65.73
2018-03-04T20:51:28.465Z,63.97
2018-03-04T20:53:55.882Z,65.23
2018-03-04T20:56:23.290Z,61.07
2018-03-04T20:58:50.706Z,66.00
2018-03-04T21:01:18.130Z,63.07
2018-03-04T21:03:45.529Z,65.77
2018-03-04T21:06:12.961Z,64.23
2018-03-04T21:08:40.386Z,60.50
2018-03-04T21:11:07.789Z,66.93
2018-03-04T21:13:35.209Z,58.13
2018-03-04T21:16:02.618Z,61.27
2018-03-04T21:18:30.069Z,53.70
2018-03-04T21:20:57.437Z,59.70
2018-03-04T21:23:24.865Z,52.33
2018-03-04T21:25:52.274Z,53.07
2018-03-04T21:28:19.682Z,66.77
2018-03-04T21:30:47.095Z,58.97
2018-03-04T21:33:14.502Z,62.07
2018-03-04T21:35:41.928Z,64.10
2018-03-04T21:38:09.333Z,52.33
2018-03-04T21:40:36.761Z,58.83
2018-03-04T21:43:04.173Z,60.77
2018-03-04T21:45:31.574Z,56.73
2018-03-04T21:47:59.006Z,52.07
2018-03-04T21:50:26.440Z,46.70
2018-03-04T21:52:53.857Z,52.23
2018-03-04T21:55:21.270Z,53.10
2018-03-04T21:57:48.686Z,43.60
2018-03-04T22:00:16.106Z,50.13
2018-03-04T22:02:43.538Z,45.00
2018-03-04T22:05:10.938Z,46.77
2018-03-04T22:07:38.350Z,47.07
2018-03-04T22:10:05.761Z,47.30
2018-03-04T22:12:33.166Z,49.20
2018-03-04T22:15:00.577Z,41.53
2018-03-04T22:17:27.997Z,46.93
2018-03-04T22:19:55.398Z,43.07
2018-03-04T22:22:22.810Z,43.23
2018-03-04T22:24:50.222Z,37.43
2018-03-04T22:27:17.638Z,42.60
2018-03-04T22:29:45.046Z,36.83
2018-03-04T22:32:12.462Z,31.50
2018-03-04T22:34:39.889Z,33.23
2018-03-04T22:37:07.298Z,36.03
2018-03-04T22:39:34.727Z,32.43
2018-03-04T22:42:02.261Z,37.67
2018-03-04T22:44:29.676Z,35.60
2018-03-04T22:46:57.087Z,31.30
2018-03-04T22:49:24.505Z,28.50
2018-03-04T22:51:51.907Z,31.40
2018-03-04T22:54:19.313Z,27.53
2018-03-04T22:56:46.731Z,27.37
2018-03-04T22:59:14.129Z,27.67
2018-03-04T23:01:41.550Z,27.40
2018-03-04T23:04:08.950Z,26.40
2018-03-04T23:06:36.626Z,25.23
2018-03-04T23:09:04.034Z,23.00
2018-03-04T23:11:31.444Z,21.37
2018-03-04T23:13:58.870Z,19.03
2018-03-04T23:16:26.290Z,18.17
2018-03-04T23:18:53.710Z,17.43
2018-03-04T23:21:21.119Z,18.10
2018-03-04T23:23:48.533Z,15.23
2018-03-04T23:26:15.949Z,15.27
2018-03-04T23:28:43.403Z,15.40
2018-03-04T23:31:10.774Z,15.20
2018-03-04T23:33:38.194Z,15.57
2018-03-04T23:36:05.601Z,14.83
2018-03-04T23:38:33.014Z,13.60
2018-03-04T23:41:00.433Z,14.63
2018-03-04T23:43:27.834Z,15.00
2018-03-04T23:45:55.245Z,14.20
2018-03-04T23:48:22.702Z,14.70
2018-03-04T23:50:50.116Z,14.00
2018-03-04T23:53:17.531Z,15.07
2018-03-04T23:55:44.939Z,14.07
2018-03-04T23:58:12.346Z,14.40
